KAYS/AYS METAR and TAF weather

Enter ICAO airport designator
Station Type Date Time Source
KAYS METAR 2021/03/05 06:55 UTC NOAA

KAYS 050655Z AUTO 00000KT 10SM CLR 10/06 A3000 RMK AO2 T00960057


Station Type Date Time Source
KAYS Decoded METAR 2021/03/05 06:55 UTC NOAA

Waycross / Ware County, Ga, GA, United States (KAYS) 31-15N 082-24W 46M
Mar 05, 2021 - 01:55 AM EST / 2021.03.05 0655 UTC
Wind: Calm:0
Visibility: 10 mile(s):0
Sky conditions: clear
Temperature: 49.3 F (9.6 C)
Dew Point: 42.3 F (5.7 C)
Relative Humidity: 76%
Pressure (altimeter): 30 in. Hg (1015 hPa)
ob: KAYS 050655Z AUTO 00000KT 10SM CLR 10/06 A3000 RMK AO2 T00960057
cycle: 7

Station Type Date Time Source
KAYS TAF UTC NOAA

Error!

Example: see airport list